sensor_id;sensor_type;location;lat;lon;timestamp;temperature;humidity
75457;SHT31;64036;48.266;14.192;2023-04-16T00:00:38;6.85;83.17
75457;SHT31;64036;48.266;14.192;2023-04-16T00:03:04;6.85;83.15
75457;SHT31;64036;48.266;14.192;2023-04-16T00:05:30;6.83;83.20
75457;SHT31;64036;48.266;14.192;2023-04-16T00:08:01;6.82;83.20
75457;SHT31;64036;48.266;14.192;2023-04-16T00:10:30;6.81;83.20
75457;SHT31;64036;48.266;14.192;2023-04-16T00:12:59;6.80;83.29
75457;SHT31;64036;48.266;14.192;2023-04-16T00:15:36;6.82;83.30
75457;SHT31;64036;48.266;14.192;2023-04-16T00:18:02;6.84;83.30
75457;SHT31;64036;48.266;14.192;2023-04-16T00:20:28;6.86;83.25
75457;SHT31;64036;48.266;14.192;2023-04-16T00:22:53;6.87;83.21
75457;SHT31;64036;48.266;14.192;2023-04-16T00:25:25;6.87;83.20
75457;SHT31;64036;48.266;14.192;2023-04-16T00:27:58;6.89;83.21
75457;SHT31;64036;48.266;14.192;2023-04-16T00:30:24;6.88;83.20
75457;SHT31;64036;48.266;14.192;2023-04-16T00:32:52;6.89;83.24
75457;SHT31;64036;48.266;14.192;2023-04-16T00:35:18;6.89;83.28
75457;SHT31;64036;48.266;14.192;2023-04-16T00:37:47;6.90;83.30
75457;SHT31;64036;48.266;14.192;2023-04-16T00:40:15;6.91;83.31
75457;SHT31;64036;48.266;14.192;2023-04-16T00:42:41;6.92;83.37
75457;SHT31;64036;48.266;14.192;2023-04-16T00:45:08;6.93;83.39
75457;SHT31;64036;48.266;14.192;2023-04-16T00:47:35;6.95;83.38
75457;SHT31;64036;48.266;14.192;2023-04-16T00:50:02;6.96;83.40
75457;SHT31;64036;48.266;14.192;2023-04-16T00:52:30;6.97;83.40
75457;SHT31;64036;48.266;14.192;2023-04-16T00:54:57;6.96;83.40
75457;SHT31;64036;48.266;14.192;2023-04-16T00:57:32;6.97;83.40
75457;SHT31;64036;48.266;14.192;2023-04-16T01:00:01;6.97;83.42
75457;SHT31;64036;48.266;14.192;2023-04-16T01:02:27;6.96;83.41
75457;SHT31;64036;48.266;14.192;2023-04-16T01:04:53;6.97;83.43
75457;SHT31;64036;48.266;14.192;2023-04-16T01:07:22;6.98;83.41
75457;SHT31;64036;48.266;14.192;2023-04-16T01:09:55;6.99;83.40
75457;SHT31;64036;48.266;14.192;2023-04-16T01:12:33;7.02;83.37
75457;SHT31;64036;48.266;14.192;2023-04-16T01:15:00;7.04;83.31
75457;SHT31;64036;48.266;14.192;2023-04-16T01:17:27;7.06;83.27
75457;SHT31;64036;48.266;14.192;2023-04-16T01:19:53;7.05;83.22
75457;SHT31;64036;48.266;14.192;2023-04-16T01:22:19;7.07;83.17
75457;SHT31;64036;48.266;14.192;2023-04-16T01:24:44;7.08;83.14
75457;SHT31;64036;48.266;14.192;2023-04-16T01:27:10;7.09;83.14
75457;SHT31;64036;48.266;14.192;2023-04-16T01:29:42;7.08;83.10
75457;SHT31;64036;48.266;14.192;2023-04-16T01:32:10;7.07;83.12
75457;SHT31;64036;48.266;14.192;2023-04-16T01:34:36;7.09;83.12
75457;SHT31;64036;48.266;14.192;2023-04-16T01:37:02;7.09;83.12
75457;SHT31;64036;48.266;14.192;2023-04-16T01:39:28;7.11;83.10
75457;SHT31;64036;48.266;14.192;2023-04-16T01:41:59;7.12;83.09
75457;SHT31;64036;48.266;14.192;2023-04-16T01:44:26;7.13;83.03
75457;SHT31;64036;48.266;14.192;2023-04-16T01:46:52;7.13;82.96
75457;SHT31;64036;48.266;14.192;2023-04-16T01:49:18;7.12;82.92
75457;SHT31;64036;48.266;14.192;2023-04-16T01:51:44;7.10;82.92
75457;SHT31;64036;48.266;14.192;2023-04-16T01:54:17;7.11;82.95
75457;SHT31;64036;48.266;14.192;2023-04-16T01:56:51;7.10;82.90
75457;SHT31;64036;48.266;14.192;2023-04-16T01:59:17;7.09;82.91
75457;SHT31;64036;48.266;14.192;2023-04-16T02:01:46;7.07;82.99
75457;SHT31;64036;48.266;14.192;2023-04-16T02:04:48;7.06;83.00
75457;SHT31;64036;48.266;14.192;2023-04-16T02:07:13;7.06;82.98
75457;SHT31;64036;48.266;14.192;2023-04-16T02:09:39;7.03;82.99
75457;SHT31;64036;48.266;14.192;2023-04-16T02:12:06;6.99;83.00
75457;SHT31;64036;48.266;14.192;2023-04-16T02:14:41;6.96;83.10
75457;SHT31;64036;48.266;14.192;2023-04-16T02:17:07;6.95;83.11
75457;SHT31;64036;48.266;14.192;2023-04-16T02:19:33;6.91;83.19
75457;SHT31;64036;48.266;14.192;2023-04-16T02:21:59;6.89;83.29
75457;SHT31;64036;48.266;14.192;2023-04-16T02:24:25;6.88;83.32
75457;SHT31;64036;48.266;14.192;2023-04-16T02:26:52;6.87;83.33
75457;SHT31;64036;48.266;14.192;2023-04-16T02:29:21;6.87;83.38
75457;SHT31;64036;48.266;14.192;2023-04-16T02:31:49;6.85;83.40
75457;SHT31;64036;48.266;14.192;2023-04-16T02:34:20;6.86;83.40
75457;SHT31;64036;48.266;14.192;2023-04-16T02:36:45;6.86;83.40
75457;SHT31;64036;48.266;14.192;2023-04-16T02:39:11;6.84;83.41
75457;SHT31;64036;48.266;14.192;2023-04-16T02:41:37;6.83;83.48
75457;SHT31;64036;48.266;14.192;2023-04-16T02:44:03;6.79;83.55
75457;SHT31;64036;48.266;14.192;2023-04-16T02:46:30;6.78;83.69
75457;SHT31;64036;48.266;14.192;2023-04-16T02:49:07;6.77;83.79
75457;SHT31;64036;48.266;14.192;2023-04-16T02:51:33;6.76;83.89
75457;SHT31;64036;48.266;14.192;2023-04-16T02:53:58;6.76;83.93
75457;SHT31;64036;48.266;14.192;2023-04-16T02:56:24;6.77;83.94
75457;SHT31;64036;48.266;14.192;2023-04-16T02:58:53;6.77;83.92
75457;SHT31;64036;48.266;14.192;2023-04-16T03:01:22;6.75;83.96
75457;SHT31;64036;48.266;14.192;2023-04-16T03:03:52;6.74;84.02
75457;SHT31;64036;48.266;14.192;2023-04-16T03:06:20;6.72;84.10
75457;SHT31;64036;48.266;14.192;2023-04-16T03:08:56;6.72;84.14
75457;SHT31;64036;48.266;14.192;2023-04-16T03:11:24;6.70;84.24
75457;SHT31;64036;48.266;14.192;2023-04-16T03:13:50;6.69;84.32
75457;SHT31;64036;48.266;14.192;2023-04-16T03:16:15;6.69;84.39
75457;SHT31;64036;48.266;14.192;2023-04-16T03:18:46;6.68;84.41
75457;SHT31;64036;48.266;14.192;2023-04-16T03:21:12;6.68;84.41
75457;SHT31;64036;48.266;14.192;2023-04-16T03:23:37;6.68;84.44
75457;SHT31;64036;48.266;14.192;2023-04-16T03:26:06;6.70;84.50
75457;SHT31;64036;48.266;14.192;2023-04-16T03:28:35;6.70;84.48
75457;SHT31;64036;48.266;14.192;2023-04-16T03:31:04;6.70;84.41
75457;SHT31;64036;48.266;14.192;2023-04-16T03:33:30;6.70;84.43
75457;SHT31;64036;48.266;14.192;2023-04-16T03:35:56;6.70;84.50
75457;SHT31;64036;48.266;14.192;2023-04-16T03:38:44;6.72;84.50
75457;SHT31;64036;48.266;14.192;2023-04-16T03:41:10;6.74;84.49
75457;SHT31;64036;48.266;14.192;2023-04-16T03:43:38;6.77;84.41
75457;SHT31;64036;48.266;14.192;2023-04-16T03:46:14;6.78;84.39
75457;SHT31;64036;48.266;14.192;2023-04-16T03:48:52;6.80;84.28
75457;SHT31;64036;48.266;14.192;2023-04-16T03:54:13;6.76;84.30
75457;SHT31;64036;48.266;14.192;2023-04-16T03:56:41;6.76;84.30
75457;SHT31;64036;48.266;14.192;2023-04-16T03:59:08;6.73;84.30
75457;SHT31;64036;48.266;14.192;2023-04-16T04:01:34;6.70;84.39
75457;SHT31;64036;48.266;14.192;2023-04-16T04:04:03;6.69;84.47
75457;SHT31;64036;48.266;14.192;2023-04-16T04:06:28;6.68;84.55
75457;SHT31;64036;48.266;14.192;2023-04-16T04:08:57;6.69;84.60
75457;SHT31;64036;48.266;14.192;2023-04-16T04:11:23;6.70;84.64
75457;SHT31;64036;48.266;14.192;2023-04-16T04:13:52;6.72;84.70
75457;SHT31;64036;48.266;14.192;2023-04-16T04:16:37;6.74;84.70
75457;SHT31;64036;48.266;14.192;2023-04-16T04:19:15;6.77;84.64
75457;SHT31;64036;48.266;14.192;2023-04-16T04:21:41;6.79;84.59
75457;SHT31;64036;48.266;14.192;2023-04-16T04:24:15;6.81;84.55
75457;SHT31;64036;48.266;14.192;2023-04-16T04:26:47;6.80;84.49
75457;SHT31;64036;48.266;14.192;2023-04-16T04:29:12;6.82;84.48
75457;SHT31;64036;48.266;14.192;2023-04-16T04:31:43;6.83;84.40
75457;SHT31;64036;48.266;14.192;2023-04-16T04:34:14;6.86;84.37
75457;SHT31;64036;48.266;14.192;2023-04-16T04:36:43;6.87;84.31
75457;SHT31;64036;48.266;14.192;2023-04-16T04:39:19;6.87;84.30
75457;SHT31;64036;48.266;14.192;2023-04-16T04:41:46;6.89;84.30
75457;SHT31;64036;48.266;14.192;2023-04-16T04:44:12;6.88;84.21
75457;SHT31;64036;48.266;14.192;2023-04-16T04:46:38;6.88;84.20
75457;SHT31;64036;48.266;14.192;2023-04-16T04:49:18;6.88;84.20
75457;SHT31;64036;48.266;14.192;2023-04-16T04:51:49;6.89;84.21
75457;SHT31;64036;48.266;14.192;2023-04-16T04:54:23;6.93;84.25
75457;SHT31;64036;48.266;14.192;2023-04-16T04:56:51;6.96;84.18
75457;SHT31;64036;48.266;14.192;2023-04-16T04:59:16;6.98;84.10
75457;SHT31;64036;48.266;14.192;2023-04-16T05:01:42;7.00;84.10
75457;SHT31;64036;48.266;14.192;2023-04-16T05:04:10;7.00;84.00
75457;SHT31;64036;48.266;14.192;2023-04-16T05:06:38;7.01;83.99
75457;SHT31;64036;48.266;14.192;2023-04-16T05:09:04;7.03;84.01
75457;SHT31;64036;48.266;14.192;2023-04-16T05:11:29;7.05;84.06
75457;SHT31;64036;48.266;14.192;2023-04-16T05:13:55;7.09;84.04
75457;SHT31;64036;48.266;14.192;2023-04-16T05:16:21;7.11;83.92
75457;SHT31;64036;48.266;14.192;2023-04-16T05:18:49;7.13;83.88
75457;SHT31;64036;48.266;14.192;2023-04-16T05:21:18;7.16;83.84
75457;SHT31;64036;48.266;14.192;2023-04-16T05:24:00;7.19;83.81
75457;SHT31;64036;48.266;14.192;2023-04-16T05:26:31;7.22;83.79
75457;SHT31;64036;48.266;14.192;2023-04-16T05:29:00;7.25;83.71
75457;SHT31;64036;48.266;14.192;2023-04-16T05:31:41;7.26;83.65
75457;SHT31;64036;48.266;14.192;2023-04-16T05:34:06;7.28;83.64
75457;SHT31;64036;48.266;14.192;2023-04-16T05:36:35;7.30;83.66
75457;SHT31;64036;48.266;14.192;2023-04-16T05:39:01;7.32;83.61
75457;SHT31;64036;48.266;14.192;2023-04-16T05:41:31;7.33;83.66
75457;SHT31;64036;48.266;14.192;2023-04-16T05:44:01;7.33;83.67
75457;SHT31;64036;48.266;14.192;2023-04-16T05:46:26;7.32;83.60
75457;SHT31;64036;48.266;14.192;2023-04-16T05:48:52;7.32;83.66
75457;SHT31;64036;48.266;14.192;2023-04-16T05:51:21;7.32;83.70
75457;SHT31;64036;48.266;14.192;2023-04-16T05:53:50;7.32;83.70
75457;SHT31;64036;48.266;14.192;2023-04-16T05:56:18;7.33;83.70
75457;SHT31;64036;48.266;14.192;2023-04-16T05:58:44;7.36;83.70
75457;SHT31;64036;48.266;14.192;2023-04-16T06:01:10;7.40;83.74
75457;SHT31;64036;48.266;14.192;2023-04-16T06:03:36;7.44;83.72
75457;SHT31;64036;48.266;14.192;2023-04-16T06:06:04;7.47;83.67
75457;SHT31;64036;48.266;14.192;2023-04-16T06:08:33;7.48;83.61
75457;SHT31;64036;48.266;14.192;2023-04-16T06:10:59;7.48;83.54
75457;SHT31;64036;48.266;14.192;2023-04-16T06:13:25;7.48;83.50
75457;SHT31;64036;48.266;14.192;2023-04-16T06:15:50;7.48;83.49
75457;SHT31;64036;48.266;14.192;2023-04-16T06:18:16;7.48;83.45
75457;SHT31;64036;48.266;14.192;2023-04-16T06:20:42;7.48;83.41
75457;SHT31;64036;48.266;14.192;2023-04-16T06:23:08;7.47;83.35
75457;SHT31;64036;48.266;14.192;2023-04-16T06:25:33;7.47;83.30
75457;SHT31;64036;48.266;14.192;2023-04-16T06:27:59;7.46;83.30
75457;SHT31;64036;48.266;14.192;2023-04-16T06:30:25;7.46;83.30
75457;SHT31;64036;48.266;14.192;2023-04-16T06:32:59;7.48;83.31
75457;SHT31;64036;48.266;14.192;2023-04-16T06:35:25;7.55;83.38
75457;SHT31;64036;48.266;14.192;2023-04-16T06:37:51;7.65;83.36
75457;SHT31;64036;48.266;14.192;2023-04-16T06:40:22;7.75;83.25
75457;SHT31;64036;48.266;14.192;2023-04-16T06:42:48;7.85;83.12
75457;SHT31;64036;48.266;14.192;2023-04-16T06:45:14;7.94;83.02
75457;SHT31;64036;48.266;14.192;2023-04-16T06:47:39;8.05;82.91
75457;SHT31;64036;48.266;14.192;2023-04-16T06:50:11;8.13;82.74
75457;SHT31;64036;48.266;14.192;2023-04-16T06:52:37;8.23;82.78
75457;SHT31;64036;48.266;14.192;2023-04-16T06:55:05;8.35;82.75
75457;SHT31;64036;48.266;14.192;2023-04-16T06:57:34;8.47;82.67
75457;SHT31;64036;48.266;14.192;2023-04-16T07:00:01;8.64;82.60
75457;SHT31;64036;48.266;14.192;2023-04-16T07:02:29;8.89;82.43
75457;SHT31;64036;48.266;14.192;2023-04-16T07:04:55;9.23;82.12
75457;SHT31;64036;48.266;14.192;2023-04-16T07:07:20;9.66;81.50
75457;SHT31;64036;48.266;14.192;2023-04-16T07:09:50;10.10;80.82
75457;SHT31;64036;48.266;14.192;2023-04-16T07:12:16;10.42;80.23
75457;SHT31;64036;48.266;14.192;2023-04-16T07:14:42;10.87;79.51
75457;SHT31;64036;48.266;14.192;2023-04-16T07:17:07;11.28;78.66
75457;SHT31;64036;48.266;14.192;2023-04-16T07:19:33;11.59;78.38
75457;SHT31;64036;48.266;14.192;2023-04-16T07:21:59;11.83;78.19
75457;SHT31;64036;48.266;14.192;2023-04-16T07:24:25;11.98;77.92
75457;SHT31;64036;48.266;14.192;2023-04-16T07:26:53;11.97;77.55
75457;SHT31;64036;48.266;14.192;2023-04-16T07:29:19;11.82;76.89
75457;SHT31;64036;48.266;14.192;2023-04-16T07:31:45;11.57;76.27
75457;SHT31;64036;48.266;14.192;2023-04-16T07:34:10;11.43;76.80
75457;SHT31;64036;48.266;14.192;2023-04-16T07:36:36;11.32;76.73
75457;SHT31;64036;48.266;14.192;2023-04-16T07:39:05;11.23;76.39
75457;SHT31;64036;48.266;14.192;2023-04-16T07:41:31;11.19;76.64
75457;SHT31;64036;48.266;14.192;2023-04-16T07:43:56;11.19;76.53
75457;SHT31;64036;48.266;14.192;2023-04-16T07:46:22;11.22;76.69
75457;SHT31;64036;48.266;14.192;2023-04-16T07:48:48;11.60;76.46
75457;SHT31;64036;48.266;14.192;2023-04-16T07:51:13;12.73;75.28
75457;SHT31;64036;48.266;14.192;2023-04-16T07:53:39;12.92;74.13
75457;SHT31;64036;48.266;14.192;2023-04-16T07:56:06;12.95;74.23
75457;SHT31;64036;48.266;14.192;2023-04-16T07:58:32;12.89;73.70
75457;SHT31;64036;48.266;14.192;2023-04-16T08:00:57;12.78;73.51
75457;SHT31;64036;48.266;14.192;2023-04-16T08:03:23;12.62;73.52
75457;SHT31;64036;48.266;14.192;2023-04-16T08:05:49;12.44;73.03
75457;SHT31;64036;48.266;14.192;2023-04-16T08:08:14;12.19;72.70
75457;SHT31;64036;48.266;14.192;2023-04-16T08:10:40;11.92;72.74
75457;SHT31;64036;48.266;14.192;2023-04-16T08:13:06;11.74;73.30
75457;SHT31;64036;48.266;14.192;2023-04-16T08:15:31;11.65;73.46
75457;SHT31;64036;48.266;14.192;2023-04-16T08:17:57;11.58;73.57
75457;SHT31;64036;48.266;14.192;2023-04-16T08:20:23;11.56;73.69
75457;SHT31;64036;48.266;14.192;2023-04-16T08:22:49;11.58;73.65
75457;SHT31;64036;48.266;14.192;2023-04-16T08:25:15;11.53;73.32
75457;SHT31;64036;48.266;14.192;2023-04-16T08:27:40;11.44;73.28
75457;SHT31;64036;48.266;14.192;2023-04-16T08:30:06;11.34;73.29
75457;SHT31;64036;48.266;14.192;2023-04-16T08:32:32;11.26;73.67
75457;SHT31;64036;48.266;14.192;2023-04-16T08:34:58;11.21;73.88
75457;SHT31;64036;48.266;14.192;2023-04-16T08:37:24;11.18;74.19
75457;SHT31;64036;48.266;14.192;2023-04-16T08:39:50;11.10;73.94
75457;SHT31;64036;48.266;14.192;2023-04-16T08:42:29;11.07;74.14
75457;SHT31;64036;48.266;14.192;2023-04-16T08:45:07;11.07;74.60
75457;SHT31;64036;48.266;14.192;2023-04-16T08:47:40;11.06;74.47
75457;SHT31;64036;48.266;14.192;2023-04-16T08:50:10;10.96;74.29
75457;SHT31;64036;48.266;14.192;2023-04-16T08:52:42;10.80;74.14
75457;SHT31;64036;48.266;14.192;2023-04-16T08:55:17;10.70;74.51
75457;SHT31;64036;48.266;14.192;2023-04-16T08:57:49;10.66;74.58
75457;SHT31;64036;48.266;14.192;2023-04-16T09:00:19;10.64;74.77
75457;SHT31;64036;48.266;14.192;2023-04-16T09:02:45;10.63;74.78
75457;SHT31;64036;48.266;14.192;2023-04-16T09:05:13;10.61;75.12
75457;SHT31;64036;48.266;14.192;2023-04-16T09:07:49;10.58;74.72
75457;SHT31;64036;48.266;14.192;2023-04-16T09:10:18;10.55;74.60
75457;SHT31;64036;48.266;14.192;2023-04-16T09:12:44;10.49;74.58
75457;SHT31;64036;48.266;14.192;2023-04-16T09:15:13;10.42;74.72
75457;SHT31;64036;48.266;14.192;2023-04-16T09:17:38;10.35;74.76
75457;SHT31;64036;48.266;14.192;2023-04-16T09:20:05;10.34;75.03
75457;SHT31;64036;48.266;14.192;2023-04-16T09:22:38;10.37;75.24
75457;SHT31;64036;48.266;14.192;2023-04-16T09:25:06;10.45;75.34
75457;SHT31;64036;48.266;14.192;2023-04-16T09:27:32;10.47;75.09
75457;SHT31;64036;48.266;14.192;2023-04-16T09:29:58;10.47;75.12
75457;SHT31;64036;48.266;14.192;2023-04-16T09:32:24;10.45;74.87
75457;SHT31;64036;48.266;14.192;2023-04-16T09:34:53;10.41;74.95
75457;SHT31;64036;48.266;14.192;2023-04-16T09:37:21;10.42;74.96
75457;SHT31;64036;48.266;14.192;2023-04-16T09:39:58;10.41;74.83
75457;SHT31;64036;48.266;14.192;2023-04-16T09:42:27;10.40;74.87
75457;SHT31;64036;48.266;14.192;2023-04-16T09:44:58;10.36;74.92
75457;SHT31;64036;48.266;14.192;2023-04-16T09:47:40;10.32;74.88
75457;SHT31;64036;48.266;14.192;2023-04-16T09:50:07;10.30;75.06
75457;SHT31;64036;48.266;14.192;2023-04-16T09:52:38;10.27;74.82
75457;SHT31;64036;48.266;14.192;2023-04-16T09:55:10;10.28;74.98
75457;SHT31;64036;48.266;14.192;2023-04-16T09:57:36;10.33;75.01
75457;SHT31;64036;48.266;14.192;2023-04-16T10:00:03;10.43;74.84
75457;SHT31;64036;48.266;14.192;2023-04-16T10:02:32;10.53;74.61
75457;SHT31;64036;48.266;14.192;2023-04-16T10:05:02;10.64;74.58
75457;SHT31;64036;48.266;14.192;2023-04-16T10:07:32;10.79;74.59
75457;SHT31;64036;48.266;14.192;2023-04-16T10:09:59;10.97;74.40
75457;SHT31;64036;48.266;14.192;2023-04-16T10:12:25;11.18;74.20
75457;SHT31;64036;48.266;14.192;2023-04-16T10:14:52;11.35;73.95
75457;SHT31;64036;48.266;14.192;2023-04-16T10:17:18;11.55;73.56
75457;SHT31;64036;48.266;14.192;2023-04-16T10:19:46;11.67;72.42
75457;SHT31;64036;48.266;14.192;2023-04-16T10:22:12;11.68;71.42
75457;SHT31;64036;48.266;14.192;2023-04-16T10:24:38;11.71;71.97
75457;SHT31;64036;48.266;14.192;2023-04-16T10:27:05;11.84;72.02
75457;SHT31;64036;48.266;14.192;2023-04-16T10:29:31;11.94;71.05
75457;SHT31;64036;48.266;14.192;2023-04-16T10:31:58;12.00;71.30
75457;SHT31;64036;48.266;14.192;2023-04-16T10:34:25;12.06;71.17
75457;SHT31;64036;48.266;14.192;2023-04-16T10:36:53;12.07;71.22
75457;SHT31;64036;48.266;14.192;2023-04-16T10:39:20;12.06;71.15
75457;SHT31;64036;48.266;14.192;2023-04-16T10:41:49;12.06;71.11
75457;SHT31;64036;48.266;14.192;2023-04-16T10:44:16;12.00;70.43
75457;SHT31;64036;48.266;14.192;2023-04-16T10:46:44;11.90;70.14
75457;SHT31;64036;48.266;14.192;2023-04-16T10:49:18;11.82;70.44
75457;SHT31;64036;48.266;14.192;2023-04-16T10:51:54;11.83;70.56
75457;SHT31;64036;48.266;14.192;2023-04-16T10:56:59;11.81;69.88
75457;SHT31;64036;48.266;14.192;2023-04-16T10:59:31;11.75;70.22
75457;SHT31;64036;48.266;14.192;2023-04-16T11:01:59;11.71;69.57
75457;SHT31;64036;48.266;14.192;2023-04-16T11:04:34;11.60;69.42
75457;SHT31;64036;48.266;14.192;2023-04-16T11:07:02;11.57;69.81
75457;SHT31;64036;48.266;14.192;2023-04-16T11:12:23;11.59;70.37
75457;SHT31;64036;48.266;14.192;2023-04-16T11:15:11;11.55;69.34
75457;SHT31;64036;48.266;14.192;2023-04-16T11:17:44;11.53;69.67
75457;SHT31;64036;48.266;14.192;2023-04-16T11:20:15;11.57;69.76
75457;SHT31;64036;48.266;14.192;2023-04-16T11:22:46;11.63;70.10
75457;SHT31;64036;48.266;14.192;2023-04-16T11:25:19;11.71;69.97
75457;SHT31;64036;48.266;14.192;2023-04-16T11:27:47;11.74;69.54
75457;SHT31;64036;48.266;14.192;2023-04-16T11:30:13;11.77;69.11
75457;SHT31;64036;48.266;14.192;2023-04-16T11:32:39;11.73;68.85
75457;SHT31;64036;48.266;14.192;2023-04-16T11:35:15;11.70;68.87
75457;SHT31;64036;48.266;14.192;2023-04-16T11:37:45;11.69;69.17
75457;SHT31;64036;48.266;14.192;2023-04-16T11:40:12;11.71;69.33
75457;SHT31;64036;48.266;14.192;2023-04-16T11:42:38;11.68;69.86
75457;SHT31;64036;48.266;14.192;2023-04-16T11:45:09;11.67;70.35
75457;SHT31;64036;48.266;14.192;2023-04-16T11:50:21;11.79;70.62
75457;SHT31;64036;48.266;14.192;2023-04-16T11:52:48;11.82;70.62
75457;SHT31;64036;48.266;14.192;2023-04-16T11:55:15;11.90;70.92
75457;SHT31;64036;48.266;14.192;2023-04-16T11:57:44;11.97;71.04
75457;SHT31;64036;48.266;14.192;2023-04-16T12:00:11;12.03;70.98
75457;SHT31;64036;48.266;14.192;2023-04-16T12:02:41;12.04;71.00
75457;SHT31;64036;48.266;14.192;2023-04-16T12:08:03;12.13;71.40
75457;SHT31;64036;48.266;14.192;2023-04-16T12:10:32;12.17;71.18
75457;SHT31;64036;48.266;14.192;2023-04-16T12:13:10;12.20;71.09
75457;SHT31;64036;48.266;14.192;2023-04-16T12:15:54;12.25;71.06
75457;SHT31;64036;48.266;14.192;2023-04-16T12:18:22;12.33;71.13
75457;SHT31;64036;48.266;14.192;2023-04-16T12:20:52;12.40;71.13
75457;SHT31;64036;48.266;14.192;2023-04-16T12:23:21;12.49;70.90
75457;SHT31;64036;48.266;14.192;2023-04-16T12:25:58;12.57;70.73
75457;SHT31;64036;48.266;14.192;2023-04-16T12:28:34;12.63;70.71
75457;SHT31;64036;48.266;14.192;2023-04-16T12:31:04;12.74;70.65
75457;SHT31;64036;48.266;14.192;2023-04-16T12:33:31;12.84;70.25
75457;SHT31;64036;48.266;14.192;2023-04-16T12:35:57;12.89;69.97
75457;SHT31;64036;48.266;14.192;2023-04-16T12:38:22;12.93;69.98
75457;SHT31;64036;48.266;14.192;2023-04-16T12:40:49;12.94;69.73
75457;SHT31;64036;48.266;14.192;2023-04-16T12:43:15;12.97;69.71
75457;SHT31;64036;48.266;14.192;2023-04-16T12:45:41;13.00;69.50
75457;SHT31;64036;48.266;14.192;2023-04-16T12:48:07;13.06;69.53
75457;SHT31;64036;48.266;14.192;2023-04-16T12:50:32;13.08;69.55
75457;SHT31;64036;48.266;14.192;2023-04-16T12:52:58;13.15;69.41
75457;SHT31;64036;48.266;14.192;2023-04-16T12:55:24;13.16;69.47
75457;SHT31;64036;48.266;14.192;2023-04-16T12:57:50;13.18;69.43
75457;SHT31;64036;48.266;14.192;2023-04-16T13:00:19;13.17;69.48
75457;SHT31;64036;48.266;14.192;2023-04-16T13:02:45;13.23;69.14
75457;SHT31;64036;48.266;14.192;2023-04-16T13:05:10;13.31;69.04
75457;SHT31;64036;48.266;14.192;2023-04-16T13:07:38;13.41;68.87
75457;SHT31;64036;48.266;14.192;2023-04-16T13:10:04;13.40;68.94
75457;SHT31;64036;48.266;14.192;2023-04-16T13:12:30;13.49;69.02
75457;SHT31;64036;48.266;14.192;2023-04-16T13:14:57;13.60;68.74
75457;SHT31;64036;48.266;14.192;2023-04-16T13:17:22;13.71;68.68
75457;SHT31;64036;48.266;14.192;2023-04-16T13:19:48;13.86;68.14
75457;SHT31;64036;48.266;14.192;2023-04-16T13:22:14;14.00;67.78
75457;SHT31;64036;48.266;14.192;2023-04-16T13:24:40;14.13;67.37
75457;SHT31;64036;48.266;14.192;2023-04-16T13:27:05;14.25;67.19
75457;SHT31;64036;48.266;14.192;2023-04-16T13:29:32;14.42;66.91
75457;SHT31;64036;48.266;14.192;2023-04-16T13:32:01;14.66;66.82
75457;SHT31;64036;48.266;14.192;2023-04-16T13:34:27;14.74;65.86
75457;SHT31;64036;48.266;14.192;2023-04-16T13:36:53;14.60;65.36
75457;SHT31;64036;48.266;14.192;2023-04-16T13:39:18;14.45;65.13
75457;SHT31;64036;48.266;14.192;2023-04-16T13:41:44;14.46;65.53
75457;SHT31;64036;48.266;14.192;2023-04-16T13:44:10;14.59;65.43
75457;SHT31;64036;48.266;14.192;2023-04-16T13:46:36;14.59;65.49
75457;SHT31;64036;48.266;14.192;2023-04-16T13:49:02;14.59;65.13
75457;SHT31;64036;48.266;14.192;2023-04-16T13:51:28;14.62;65.12
75457;SHT31;64036;48.266;14.192;2023-04-16T13:53:53;14.71;64.94
75457;SHT31;64036;48.266;14.192;2023-04-16T13:56:22;14.86;64.60
75457;SHT31;64036;48.266;14.192;2023-04-16T13:58:47;14.95;64.15
75457;SHT31;64036;48.266;14.192;2023-04-16T14:01:13;15.05;64.17
75457;SHT31;64036;48.266;14.192;2023-04-16T14:03:39;15.18;64.20
75457;SHT31;64036;48.266;14.192;2023-04-16T14:06:05;15.31;63.63
75457;SHT31;64036;48.266;14.192;2023-04-16T14:08:31;15.30;63.82
75457;SHT31;64036;48.266;14.192;2023-04-16T14:10:57;15.31;62.96
75457;SHT31;64036;48.266;14.192;2023-04-16T14:13:23;15.28;63.00
75457;SHT31;64036;48.266;14.192;2023-04-16T14:15:49;15.13;61.98
75457;SHT31;64036;48.266;14.192;2023-04-16T14:18:18;15.09;62.88
75457;SHT31;64036;48.266;14.192;2023-04-16T14:20:44;15.17;62.92
75457;SHT31;64036;48.266;14.192;2023-04-16T14:23:11;15.24;62.21
75457;SHT31;64036;48.266;14.192;2023-04-16T14:25:36;15.20;61.89
75457;SHT31;64036;48.266;14.192;2023-04-16T14:28:02;15.09;61.63
75457;SHT31;64036;48.266;14.192;2023-04-16T14:30:31;14.92;61.99
75457;SHT31;64036;48.266;14.192;2023-04-16T14:32:56;14.99;62.43
75457;SHT31;64036;48.266;14.192;2023-04-16T14:35:22;15.06;62.02
75457;SHT31;64036;48.266;14.192;2023-04-16T14:37:48;15.04;62.07
75457;SHT31;64036;48.266;14.192;2023-04-16T14:40:14;14.92;61.46
75457;SHT31;64036;48.266;14.192;2023-04-16T14:42:40;14.98;61.88
75457;SHT31;64036;48.266;14.192;2023-04-16T14:45:06;15.12;61.96
75457;SHT31;64036;48.266;14.192;2023-04-16T14:47:35;15.20;61.36
75457;SHT31;64036;48.266;14.192;2023-04-16T14:50:02;15.11;59.78
75457;SHT31;64036;48.266;14.192;2023-04-16T14:52:29;14.88;59.84
75457;SHT31;64036;48.266;14.192;2023-04-16T14:54:56;14.64;59.92
75457;SHT31;64036;48.266;14.192;2023-04-16T14:57:22;14.41;60.60
75457;SHT31;64036;48.266;14.192;2023-04-16T14:59:48;14.24;61.35
75457;SHT31;64036;48.266;14.192;2023-04-16T15:02:13;14.13;61.61
75457;SHT31;64036;48.266;14.192;2023-04-16T15:04:39;13.98;61.58
75457;SHT31;64036;48.266;14.192;2023-04-16T15:07:11;13.80;61.23
75457;SHT31;64036;48.266;14.192;2023-04-16T15:09:36;13.56;61.13
75457;SHT31;64036;48.266;14.192;2023-04-16T15:12:02;13.34;61.84
75457;SHT31;64036;48.266;14.192;2023-04-16T15:14:28;13.19;62.42
75457;SHT31;64036;48.266;14.192;2023-04-16T15:16:54;13.06;62.74
75457;SHT31;64036;48.266;14.192;2023-04-16T15:19:19;12.95;63.11
75457;SHT31;64036;48.266;14.192;2023-04-16T15:21:45;12.87;63.39
75457;SHT31;64036;48.266;14.192;2023-04-16T15:24:12;12.78;64.35
75457;SHT31;64036;48.266;14.192;2023-04-16T15:26:49;12.64;65.09
75457;SHT31;64036;48.266;14.192;2023-04-16T15:29:38;12.50;65.50
75457;SHT31;64036;48.266;14.192;2023-04-16T15:32:07;12.40;65.61
75457;SHT31;64036;48.266;14.192;2023-04-16T15:34:32;12.32;65.44
75457;SHT31;64036;48.266;14.192;2023-04-16T15:37:01;12.28;65.40
75457;SHT31;64036;48.266;14.192;2023-04-16T15:39:26;12.22;65.62
75457;SHT31;64036;48.266;14.192;2023-04-16T15:41:52;12.21;65.71